createdAt,value
2023-03-05T00:01:34.891Z,3.70
2023-03-05T00:04:02.570Z,3.80
2023-03-05T00:06:30.047Z,3.80
2023-03-05T00:08:58.573Z,3.90
2023-03-05T00:11:28.110Z,3.90
2023-03-05T00:13:55.319Z,4.00
2023-03-05T00:16:22.524Z,4.00
2023-03-05T00:18:49.701Z,4.00
2023-03-05T00:21:20.520Z,4.10
2023-03-05T00:23:47.461Z,4.10
2023-03-05T00:26:14.219Z,4.10
2023-03-05T00:28:40.994Z,4.10
2023-03-05T00:31:07.876Z,4.10
2023-03-05T00:33:34.680Z,4.00
2023-03-05T00:36:05.915Z,3.90
2023-03-05T00:38:33.115Z,3.80
2023-03-05T00:40:59.915Z,3.80
2023-03-05T00:43:26.668Z,3.70
2023-03-05T00:45:53.869Z,3.70
2023-03-05T00:48:22.435Z,3.70
2023-03-05T00:50:49.708Z,3.70
2023-03-05T00:53:16.513Z,3.80
2023-03-05T00:55:43.311Z,3.80
2023-03-05T00:58:10.102Z,3.80
2023-03-05T01:00:36.904Z,3.80
2023-03-05T01:03:03.707Z,3.80
2023-03-05T01:05:30.555Z,3.80
2023-03-05T01:07:57.486Z,3.80
2023-03-05T01:10:26.715Z,3.80
2023-03-05T01:12:54.454Z,3.80
2023-03-05T01:15:21.585Z,3.90
2023-03-05T01:17:48.418Z,4.00
2023-03-05T01:20:15.639Z,4.00
2023-03-05T01:22:42.363Z,3.90
2023-03-05T01:25:09.481Z,3.90
2023-03-05T01:27:36.258Z,4.00
2023-03-05T01:30:03.323Z,4.00
2023-03-05T01:32:30.409Z,4.00
2023-03-05T01:34:57.227Z,4.00
2023-03-05T01:37:24.041Z,4.00
2023-03-05T01:39:50.827Z,4.00
2023-03-05T01:42:19.452Z,4.00
2023-03-05T01:45:02.775Z,4.10
2023-03-05T01:47:29.729Z,4.10
2023-03-05T01:49:56.493Z,4.20
2023-03-05T01:52:23.649Z,4.20
2023-03-05T01:54:52.607Z,4.20
2023-03-05T01:57:47.636Z,4.20
2023-03-05T02:00:22.965Z,4.10
2023-03-05T02:02:50.606Z,4.00
2023-03-05T02:05:18.677Z,4.10
2023-03-05T02:07:45.462Z,4.00
2023-03-05T02:10:20.325Z,4.00
2023-03-05T02:12:48.054Z,4.00
2023-03-05T02:15:15.046Z,3.90
2023-03-05T02:17:41.876Z,3.90
2023-03-05T02:20:11.423Z,3.90
2023-03-05T02:22:38.246Z,3.90
2023-03-05T02:25:19.700Z,3.90
2023-03-05T02:27:58.364Z,3.90
2023-03-05T02:30:25.256Z,3.90
2023-03-05T02:32:52.219Z,3.90
2023-03-05T02:35:19.217Z,3.80
2023-03-05T02:37:46.019Z,3.80
2023-03-05T02:40:13.912Z,3.90
2023-03-05T02:42:40.894Z,4.00
2023-03-05T02:45:08.328Z,4.10
2023-03-05T02:47:35.078Z,4.10
2023-03-05T02:50:01.890Z,4.20
2023-03-05T02:52:29.577Z,4.20
2023-03-05T02:54:56.353Z,4.30
2023-03-05T02:57:23.142Z,4.30
2023-03-05T02:59:49.979Z,4.30
2023-03-05T03:02:17.058Z,4.20
2023-03-05T03:04:44.765Z,4.20
2023-03-05T03:07:12.418Z,4.20
2023-03-05T03:09:39.697Z,4.20
2023-03-05T03:12:06.952Z,4.30
2023-03-05T03:14:39.067Z,4.20
2023-03-05T03:17:10.490Z,4.20
2023-03-05T03:19:37.490Z,4.20
2023-03-05T03:22:04.577Z,4.20
2023-03-05T03:24:31.714Z,4.30
2023-03-05T03:26:58.494Z,4.30
2023-03-05T03:29:25.375Z,4.40
2023-03-05T03:31:52.118Z,4.40
2023-03-05T03:34:18.995Z,4.50
2023-03-05T03:36:46.194Z,4.40
2023-03-05T03:41:44.475Z,4.30
2023-03-05T03:44:11.733Z,4.30
2023-03-05T03:46:39.380Z,4.30
2023-03-05T03:49:06.760Z,4.20
2023-03-05T03:51:33.594Z,4.30
2023-03-05T03:54:00.596Z,4.20
2023-03-05T03:56:27.400Z,4.20
2023-03-05T03:58:54.322Z,4.10
2023-03-05T04:01:21.275Z,4.20
2023-03-05T04:03:48.009Z,4.20
2023-03-05T04:06:14.954Z,4.30
2023-03-05T04:08:41.718Z,4.40
2023-03-05T04:11:09.575Z,4.40
2023-03-05T04:13:36.405Z,4.50
2023-03-05T04:16:03.339Z,4.50
2023-03-05T04:18:32.408Z,4.60
2023-03-05T04:20:59.325Z,4.60
2023-03-05T04:23:26.107Z,4.60
2023-03-05T04:25:52.922Z,4.60
2023-03-05T04:28:19.786Z,4.60
2023-03-05T04:30:46.847Z,4.70
2023-03-05T04:33:13.796Z,4.70
2023-03-05T04:35:40.688Z,4.70
2023-03-05T04:38:07.666Z,4.60
2023-03-05T04:40:34.737Z,4.60
2023-03-05T04:43:01.591Z,4.60
2023-03-05T04:45:28.393Z,4.70
2023-03-05T04:47:55.223Z,4.60
2023-03-05T04:50:22.080Z,4.60
2023-03-05T04:52:48.947Z,4.60
2023-03-05T04:55:16.190Z,4.50
2023-03-05T04:57:43.099Z,4.50
2023-03-05T05:00:14.276Z,4.50
2023-03-05T05:02:42.499Z,4.50
2023-03-05T05:05:10.863Z,4.40
2023-03-05T05:07:37.612Z,4.40
2023-03-05T05:10:05.102Z,4.40
2023-03-05T05:12:31.904Z,4.50
2023-03-05T05:14:58.711Z,4.50
2023-03-05T05:17:25.642Z,4.50
2023-03-05T05:19:52.572Z,4.50
2023-03-05T05:22:19.387Z,4.50
2023-03-05T05:24:46.224Z,4.50
2023-03-05T05:27:12.947Z,4.50
2023-03-05T05:29:39.726Z,4.50
2023-03-05T05:32:06.663Z,4.50
2023-03-05T05:34:33.522Z,4.50
2023-03-05T05:37:00.342Z,4.60
2023-03-05T05:39:27.173Z,4.60
2023-03-05T05:41:53.983Z,4.60
2023-03-05T05:44:20.698Z,4.60
2023-03-05T05:46:47.652Z,4.60
2023-03-05T05:49:14.530Z,4.60
2023-03-05T05:51:41.292Z,4.60
2023-03-05T05:54:08.085Z,4.70
2023-03-05T05:56:34.859Z,4.70
2023-03-05T05:59:01.662Z,4.70
2023-03-05T06:01:31.878Z,4.80
2023-03-05T06:03:58.797Z,4.80
2023-03-05T06:06:26.163Z,4.90
2023-03-05T06:08:53.161Z,4.90
2023-03-05T06:11:20.045Z,4.90
2023-03-05T06:13:47.461Z,4.90
2023-03-05T06:16:16.323Z,4.90
2023-03-05T06:18:43.268Z,4.80
2023-03-05T06:21:12.839Z,4.70
2023-03-05T06:23:39.716Z,4.70
2023-03-05T06:26:07.283Z,4.80
2023-03-05T06:28:34.301Z,4.80
2023-03-05T06:31:05.047Z,4.80
2023-03-05T06:33:32.026Z,4.80
2023-03-05T06:35:58.894Z,4.80
2023-03-05T06:38:25.838Z,4.70
2023-03-05T06:40:52.709Z,4.70
2023-03-05T06:43:19.490Z,4.70
2023-03-05T06:45:46.263Z,4.80
2023-03-05T06:48:13.133Z,4.90
2023-03-05T06:50:39.991Z,4.90
2023-03-05T06:53:06.874Z,5.00
2023-03-05T06:55:39.734Z,4.90
2023-03-05T06:58:06.959Z,5.00
2023-03-05T07:00:33.753Z,5.00
2023-03-05T07:03:00.589Z,5.10
2023-03-05T07:05:27.398Z,5.20
2023-03-05T07:07:54.149Z,5.40
2023-03-05T07:10:20.940Z,5.50
2023-03-05T07:12:47.810Z,5.60
2023-03-05T07:15:14.582Z,5.60
2023-03-05T07:17:41.348Z,5.60
2023-03-05T07:20:09.160Z,5.60
2023-03-05T07:22:37.870Z,5.60
2023-03-05T07:25:05.602Z,5.70
2023-03-05T07:27:36.077Z,5.70
2023-03-05T07:30:02.959Z,5.80
2023-03-05T07:32:29.857Z,5.80
2023-03-05T07:34:56.708Z,5.90
2023-03-05T07:37:23.533Z,5.90
2023-03-05T07:39:50.387Z,5.90
2023-03-05T07:42:18.456Z,5.90
2023-03-05T07:44:45.302Z,5.90
2023-03-05T07:47:12.141Z,6.00
2023-03-05T07:49:41.542Z,6.00
2023-03-05T07:52:08.771Z,6.10
2023-03-05T07:54:38.033Z,6.20
2023-03-05T07:57:05.858Z,6.30
2023-03-05T07:59:32.870Z,6.30
2023-03-05T08:01:59.791Z,6.40
2023-03-05T08:04:26.813Z,6.50
2023-03-05T08:06:53.617Z,6.50
2023-03-05T08:09:20.719Z,6.70
2023-03-05T08:11:47.473Z,6.80
2023-03-05T08:14:14.247Z,6.80
2023-03-05T08:16:41.366Z,6.80
2023-03-05T08:19:08.506Z,6.90
2023-03-05T08:21:35.887Z,6.90
2023-03-05T08:24:04.298Z,6.90
2023-03-05T08:26:31.679Z,7.00
2023-03-05T08:28:58.527Z,7.10
2023-03-05T08:31:26.503Z,7.30
2023-03-05T08:33:54.724Z,7.50
2023-03-05T08:36:21.824Z,7.70
2023-03-05T08:38:48.800Z,7.90
2023-03-05T08:41:16.469Z,8.00
2023-03-05T08:43:43.288Z,8.10
2023-03-05T08:46:13.976Z,8.30
2023-03-05T08:48:40.797Z,8.60
2023-03-05T08:51:12.716Z,8.90
2023-03-05T08:53:39.860Z,9.40
2023-03-05T08:56:07.317Z,9.90
2023-03-05T08:58:34.050Z,10.90
2023-03-05T09:01:01.006Z,12.00
2023-03-05T09:03:27.874Z,13.60
2023-03-05T09:05:57.904Z,15.60
2023-03-05T09:08:24.935Z,17.10
2023-03-05T09:10:51.737Z,17.80
2023-03-05T09:13:18.526Z,17.90
2023-03-05T09:15:45.355Z,17.70
2023-03-05T09:18:12.337Z,17.60
2023-03-05T09:20:39.145Z,18.10
2023-03-05T09:23:05.964Z,18.70
2023-03-05T09:25:33.442Z,18.90
2023-03-05T09:28:00.247Z,18.60
2023-03-05T09:30:27.053Z,18.00
2023-03-05T09:32:54.202Z,17.90
2023-03-05T09:35:21.029Z,17.70
2023-03-05T09:37:47.817Z,17.60
2023-03-05T09:40:15.888Z,17.90
2023-03-05T09:43:04.021Z,18.10
2023-03-05T09:45:35.481Z,18.00
2023-03-05T09:48:08.548Z,17.90
2023-03-05T09:50:38.710Z,17.90
2023-03-05T09:53:17.557Z,18.00
2023-03-05T09:55:45.882Z,17.90
2023-03-05T09:58:40.446Z,17.30
2023-03-05T10:01:20.896Z,16.90
2023-03-05T10:03:56.907Z,17.50
2023-03-05T10:06:47.354Z,17.80
2023-03-05T10:09:36.833Z,17.80
2023-03-05T10:12:05.971Z,16.80
2023-03-05T10:14:38.547Z,15.90
2023-03-05T10:17:26.128Z,16.00
2023-03-05T10:20:04.613Z,16.00
2023-03-05T10:22:38.256Z,16.50
2023-03-05T10:25:18.787Z,16.70
2023-03-05T10:27:59.722Z,16.70
2023-03-05T10:30:38.917Z,16.50
2023-03-05T10:33:08.781Z,16.20
2023-03-05T10:35:35.672Z,16.00
2023-03-05T10:38:24.099Z,16.50
2023-03-05T10:40:55.221Z,16.60
2023-03-05T10:43:54.635Z,16.80
2023-03-05T10:46:22.528Z,17.10
2023-03-05T10:49:18.924Z,17.20
2023-03-05T10:51:53.152Z,16.90
2023-03-05T10:54:29.835Z,16.40
2023-03-05T10:57:12.801Z,15.80
2023-03-05T10:59:41.908Z,15.20
2023-03-05T11:02:09.027Z,14.60
2023-03-05T11:04:39.729Z,14.20
2023-03-05T11:07:30.930Z,14.20
2023-03-05T11:10:00.558Z,14.60
2023-03-05T11:12:28.294Z,14.80
2023-03-05T11:15:10.351Z,14.90
2023-03-05T11:17:43.352Z,14.50
2023-03-05T11:20:34.405Z,14.20
2023-03-05T11:23:04.714Z,13.90
2023-03-05T11:25:32.559Z,13.80
2023-03-05T11:28:00.715Z,13.50
2023-03-05T11:30:28.149Z,13.40
2023-03-05T11:33:10.961Z,13.50
2023-03-05T11:35:39.754Z,13.50
2023-03-05T11:38:07.679Z,13.10
2023-03-05T11:40:37.400Z,12.70
2023-03-05T11:43:04.277Z,12.50
2023-03-05T11:45:32.723Z,12.80
2023-03-05T11:48:05.123Z,12.70
2023-03-05T11:50:33.608Z,12.30
2023-03-05T11:53:18.916Z,12.20
2023-03-05T11:55:46.876Z,12.20
2023-03-05T11:58:50.621Z,12.00
2023-03-05T12:01:18.473Z,11.80
2023-03-05T12:03:45.412Z,11.70
2023-03-05T12:06:28.177Z,11.50
2023-03-05T12:08:56.342Z,11.40
2023-03-05T12:11:30.938Z,11.30
2023-03-05T12:13:58.327Z,11.30
2023-03-05T12:16:43.865Z,11.20
2023-03-05T12:19:35.754Z,11.40
2023-03-05T12:22:02.552Z,11.50
2023-03-05T12:24:33.659Z,11.50
2023-03-05T12:27:03.316Z,11.40
2023-03-05T12:29:33.000Z,11.30
2023-03-05T12:32:23.208Z,11.30
2023-03-05T12:34:56.305Z,11.50
2023-03-05T12:37:23.394Z,11.50
2023-03-05T12:40:08.092Z,11.40
2023-03-05T12:42:35.446Z,11.30
2023-03-05T12:45:19.215Z,11.30
2023-03-05T12:48:12.160Z,11.30
2023-03-05T12:50:39.053Z,11.50
2023-03-05T12:53:19.558Z,11.70
2023-03-05T12:56:20.020Z,11.90
2023-03-05T12:58:53.981Z,12.00
2023-03-05T13:01:27.794Z,12.00
2023-03-05T13:04:16.939Z,12.00
2023-03-05T13:06:43.801Z,11.80
2023-03-05T13:09:31.591Z,11.70
2023-03-05T13:11:58.408Z,11.70
2023-03-05T13:14:46.632Z,11.80
2023-03-05T13:17:31.579Z,11.80
2023-03-05T13:19:59.221Z,11.60
2023-03-05T13:22:26.102Z,11.50
2023-03-05T13:25:05.214Z,11.50
2023-03-05T13:27:32.733Z,11.40
2023-03-05T13:29:59.536Z,11.20
2023-03-05T13:32:28.194Z,11.10
2023-03-05T13:34:56.590Z,11.20
2023-03-05T13:37:25.324Z,11.20
2023-03-05T13:40:00.117Z,11.20
2023-03-05T13:42:36.777Z,11.20
2023-03-05T13:45:28.915Z,11.20
2023-03-05T13:47:56.794Z,11.30
2023-03-05T13:50:26.820Z,11.40
2023-03-05T13:52:53.883Z,11.40
2023-03-05T13:55:20.679Z,11.50
2023-03-05T13:57:50.954Z,11.50
2023-03-05T14:00:33.796Z,11.50
2023-03-05T14:03:11.676Z,11.50
2023-03-05T14:05:43.499Z,11.40
2023-03-05T14:08:21.709Z,11.40
2023-03-05T14:10:48.636Z,11.40
2023-03-05T14:13:27.757Z,11.40
2023-03-05T14:16:10.934Z,11.30
2023-03-05T14:18:37.860Z,11.30
2023-03-05T14:21:11.384Z,11.20
2023-03-05T14:23:45.764Z,11.10
2023-03-05T14:26:31.257Z,11.00
2023-03-05T14:29:13.625Z,11.10
2023-03-05T14:31:51.171Z,11.20
2023-03-05T14:34:23.383Z,11.30
2023-03-05T14:36:50.661Z,11.30
2023-03-05T14:39:31.475Z,11.40
2023-03-05T14:42:15.448Z,11.40
2023-03-05T14:44:43.626Z,11.60
2023-03-05T14:47:10.440Z,11.60
2023-03-05T14:49:37.228Z,11.60
2023-03-05T14:52:04.193Z,11.60
2023-03-05T14:54:30.970Z,11.50
2023-03-05T14:56:57.738Z,11.40
2023-03-05T14:59:24.528Z,11.40
2023-03-05T15:01:51.550Z,11.30
2023-03-05T15:04:21.304Z,11.20
2023-03-05T15:06:50.894Z,11.30
2023-03-05T15:09:19.718Z,11.20
2023-03-05T15:11:46.935Z,11.10
2023-03-05T15:14:22.025Z,11.00
2023-03-05T15:16:48.944Z,11.00
2023-03-05T15:19:15.767Z,10.90
2023-03-05T15:21:42.563Z,10.90
2023-03-05T15:24:11.283Z,10.80
2023-03-05T15:26:38.384Z,10.80
2023-03-05T15:29:05.238Z,10.80
2023-03-05T15:31:38.414Z,10.80
2023-03-05T15:34:05.567Z,10.70
2023-03-05T15:36:33.716Z,10.70
2023-03-05T15:39:00.752Z,10.70
2023-03-05T15:41:27.699Z,10.70
2023-03-05T15:43:54.489Z,10.60
2023-03-05T15:46:21.395Z,10.60
2023-03-05T15:48:50.272Z,10.50
2023-03-05T15:51:17.732Z,10.50
2023-03-05T15:53:46.341Z,10.50
2023-03-05T15:56:19.501Z,10.40
2023-03-05T15:58:46.352Z,10.40
2023-03-05T16:01:13.368Z,10.40
2023-03-05T16:03:40.299Z,10.30
2023-03-05T16:06:08.386Z,10.20
2023-03-05T16:08:35.201Z,10.20
2023-03-05T16:11:02.065Z,10.10
2023-03-05T16:13:29.751Z,10.00
2023-03-05T16:15:57.242Z,9.90
2023-03-05T16:18:24.057Z,9.80
2023-03-05T16:20:51.275Z,9.70
2023-03-05T16:23:18.342Z,9.60
2023-03-05T16:25:45.150Z,9.50
2023-03-05T16:28:11.911Z,9.50
2023-03-05T16:30:39.987Z,9.40
2023-03-05T16:33:07.039Z,9.30
2023-03-05T16:35:33.880Z,9.20
2023-03-05T16:38:00.836Z,9.20
2023-03-05T16:40:44.168Z,9.10
2023-03-05T16:43:14.853Z,9.10
2023-03-05T16:45:41.697Z,9.00
2023-03-05T16:48:08.469Z,9.00
2023-03-05T16:50:35.265Z,8.90
2023-03-05T16:53:02.010Z,8.90
2023-03-05T16:55:28.771Z,8.80
2023-03-05T16:57:55.562Z,8.80
2023-03-05T17:00:24.741Z,8.70
2023-03-05T17:02:51.565Z,8.70
2023-03-05T17:05:18.491Z,8.60
2023-03-05T17:07:45.482Z,8.60
2023-03-05T17:10:12.423Z,8.50
2023-03-05T17:12:39.351Z,8.40
2023-03-05T17:15:07.005Z,8.30
2023-03-05T17:17:33.818Z,8.30
2023-03-05T17:20:00.562Z,8.20
2023-03-05T17:22:27.462Z,8.20
2023-03-05T17:24:54.180Z,8.10
2023-03-05T17:27:22.630Z,8.10
2023-03-05T17:29:49.388Z,8.00
2023-03-05T17:32:16.269Z,7.90
2023-03-05T17:34:43.433Z,7.80
2023-03-05T17:37:10.640Z,7.80
2023-03-05T17:39:38.432Z,7.70
2023-03-05T17:42:05.425Z,7.60
2023-03-05T17:44:32.343Z,7.60
2023-03-05T17:46:59.199Z,7.50
2023-03-05T17:49:26.219Z,7.50
2023-03-05T17:51:53.153Z,7.40
2023-03-05T17:54:20.058Z,7.40
2023-03-05T17:56:48.120Z,7.30
2023-03-05T17:59:17.563Z,7.20
2023-03-05T18:01:44.572Z,7.20
2023-03-05T18:04:11.479Z,7.20
2023-03-05T18:06:38.409Z,7.10
2023-03-05T18:09:05.388Z,7.10
2023-03-05T18:11:32.377Z,7.00
2023-03-05T18:13:59.511Z,7.00
2023-03-05T18:16:26.469Z,6.90
2023-03-05T18:18:53.467Z,6.80
2023-03-05T18:21:21.287Z,6.70
2023-03-05T18:23:48.548Z,6.70
2023-03-05T18:26:15.390Z,6.60
2023-03-05T18:28:42.296Z,6.50
2023-03-05T18:31:09.255Z,6.40
2023-03-05T18:33:36.185Z,6.40
2023-03-05T18:36:03.161Z,6.40
2023-03-05T18:38:31.455Z,6.30
2023-03-05T18:41:01.325Z,6.30
2023-03-05T18:43:28.145Z,6.20
2023-03-05T18:45:55.193Z,6.20
2023-03-05T18:48:22.230Z,6.10
2023-03-05T18:50:52.744Z,6.10
2023-03-05T18:53:20.138Z,6.00
2023-03-05T18:55:47.126Z,6.00
2023-03-05T18:58:14.276Z,5.90
2023-03-05T19:00:41.733Z,5.90
2023-03-05T19:03:09.060Z,5.80
2023-03-05T19:05:35.836Z,5.80
2023-03-05T19:08:02.646Z,5.70
2023-03-05T19:10:30.997Z,5.60
2023-03-05T19:13:25.333Z,5.60
2023-03-05T19:15:52.218Z,5.50
2023-03-05T19:18:20.680Z,5.50
2023-03-05T19:20:54.995Z,5.40
2023-03-05T19:23:22.099Z,5.30
2023-03-05T19:25:48.875Z,5.30
2023-03-05T19:28:15.880Z,5.30
2023-03-05T19:30:42.790Z,5.30
2023-03-05T19:33:09.716Z,5.20
2023-03-05T19:35:36.646Z,5.20
2023-03-05T19:38:03.437Z,5.20
2023-03-05T19:40:30.264Z,5.20
2023-03-05T19:42:58.374Z,5.20
2023-03-05T19:45:25.109Z,5.10
2023-03-05T19:47:51.874Z,5.10
2023-03-05T19:50:18.652Z,5.10
2023-03-05T19:52:45.486Z,5.10
2023-03-05T19:55:12.271Z,5.00
2023-03-05T19:57:39.182Z,5.10
2023-03-05T20:00:06.578Z,5.00
2023-03-05T20:02:33.378Z,5.00
2023-03-05T20:05:00.236Z,5.00
2023-03-05T20:07:27.064Z,5.00
2023-03-05T20:09:55.528Z,4.90
2023-03-05T20:12:23.043Z,4.90
2023-03-05T20:14:49.841Z,4.90
2023-03-05T20:17:16.607Z,4.90
2023-03-05T20:19:43.360Z,4.70
2023-03-05T20:22:10.238Z,4.70
2023-03-05T20:24:37.513Z,4.60
2023-03-05T20:27:04.525Z,4.60
2023-03-05T20:29:31.281Z,4.60
2023-03-05T20:31:58.082Z,4.60
2023-03-05T20:34:27.064Z,4.60
2023-03-05T20:36:53.865Z,4.60
2023-03-05T20:39:20.684Z,4.50
2023-03-05T20:41:48.521Z,4.50
2023-03-05T20:44:16.529Z,4.40
2023-03-05T20:47:22.627Z,4.40
2023-03-05T20:49:49.460Z,4.40
2023-03-05T20:52:16.286Z,4.40
2023-03-05T20:54:43.313Z,4.40
2023-03-05T20:57:10.118Z,4.30
2023-03-05T20:59:36.938Z,4.30
2023-03-05T21:02:03.784Z,4.30
2023-03-05T21:04:30.587Z,4.20
2023-03-05T21:06:57.385Z,4.20
2023-03-05T21:09:24.257Z,4.10
2023-03-05T21:11:51.093Z,4.00
2023-03-05T21:14:17.906Z,4.00
2023-03-05T21:16:44.772Z,4.00
2023-03-05T21:19:11.546Z,3.90
2023-03-05T21:21:40.481Z,3.90
2023-03-05T21:24:07.481Z,3.90
2023-03-05T21:26:34.512Z,3.90
2023-03-05T21:29:01.273Z,3.90
2023-03-05T21:31:28.019Z,3.90
2023-03-05T21:33:54.916Z,3.90
2023-03-05T21:36:21.668Z,3.80
2023-03-05T21:38:48.815Z,3.80
2023-03-05T21:41:15.771Z,3.80
2023-03-05T21:43:43.243Z,3.80
2023-03-05T21:46:10.921Z,3.80
2023-03-05T21:48:37.973Z,3.80
2023-03-05T21:51:31.353Z,3.70
2023-03-05T21:53:58.163Z,3.70
2023-03-05T21:56:30.998Z,3.60
2023-03-05T21:58:57.967Z,3.60
2023-03-05T22:01:24.783Z,3.60
2023-03-05T22:03:51.787Z,3.60
2023-03-05T22:06:18.926Z,3.60
2023-03-05T22:08:45.890Z,3.60
2023-03-05T22:11:13.840Z,3.60
2023-03-05T22:13:40.654Z,3.60
2023-03-05T22:16:09.108Z,3.60
2023-03-05T22:18:36.142Z,3.50
2023-03-05T22:21:03.589Z,3.50
2023-03-05T22:23:31.547Z,3.50
2023-03-05T22:25:59.076Z,3.50
2023-03-05T22:28:26.314Z,3.40
2023-03-05T22:30:53.224Z,3.40
2023-03-05T22:33:22.015Z,3.40
2023-03-05T22:35:49.936Z,3.40
2023-03-05T22:38:16.806Z,3.40
2023-03-05T22:40:44.926Z,3.40
2023-03-05T22:43:12.277Z,3.30
2023-03-05T22:45:39.180Z,3.30
2023-03-05T22:48:06.427Z,3.20
2023-03-05T22:50:33.216Z,3.20
2023-03-05T22:52:59.969Z,3.20
2023-03-05T22:55:26.761Z,3.20
2023-03-05T22:57:53.560Z,3.20
2023-03-05T23:00:23.436Z,3.10
2023-03-05T23:02:51.024Z,3.10
2023-03-05T23:05:18.029Z,3.10
2023-03-05T23:07:45.040Z,3.00
2023-03-05T23:10:13.404Z,3.00
2023-03-05T23:12:44.162Z,2.90
2023-03-05T23:15:12.750Z,2.90
2023-03-05T23:17:39.650Z,2.90
2023-03-05T23:20:09.400Z,2.80
2023-03-05T23:22:36.604Z,2.80
2023-03-05T23:25:03.547Z,2.80
2023-03-05T23:27:30.334Z,2.80
2023-03-05T23:30:17.653Z,2.80
2023-03-05T23:32:48.344Z,2.70
2023-03-05T23:35:16.726Z,2.70
2023-03-05T23:37:43.577Z,2.70
2023-03-05T23:40:14.200Z,2.70
2023-03-05T23:42:41.566Z,2.70
2023-03-05T23:45:10.283Z,2.70
2023-03-05T23:47:37.205Z,2.70
2023-03-05T23:50:08.053Z,2.60
2023-03-05T23:52:35.000Z,2.60
2023-03-05T23:55:01.732Z,2.60
2023-03-05T23:57:28.551Z,2.60
2023-03-05T23:59:55.549Z,2.70
